Aviation Digital Data Service (ADDS)

Output produced by METARs form (2126 UTC 31 October 2014)
found at http://aviationweather.gov/adds/metars/
 
KFAY 311735Z 3118/0118 35007KT P6SM FEW040 
     FM010300 VRB05KT P6SM BKN035 OVC090 
     FM010700 VRB04KT P6SM VCSH OVC025 
     FM011000 02008KT 3SM -RA OVC012 
     FM011400 01013G18KT 4SM -RA BR BKN005 OVC012